createdAt,value
2023-02-20T00:02:40.992Z,10.41
2023-02-20T00:07:42.771Z,11.27
2023-02-20T00:12:44.547Z,9.40
2023-02-20T00:17:49.539Z,9.98
2023-02-20T00:22:52.426Z,7.82
2023-02-20T00:27:54.106Z,7.99
2023-02-20T00:32:56.955Z,8.31
2023-02-20T00:37:58.587Z,8.25
2023-02-20T00:43:00.297Z,8.80
2023-02-20T00:48:01.913Z,9.81
2023-02-20T00:53:03.900Z,9.75
2023-02-20T00:58:05.581Z,8.60
2023-02-20T01:03:07.295Z,8.96
2023-02-20T01:08:09.051Z,9.92
2023-02-20T01:13:10.715Z,10.46
2023-02-20T01:18:12.381Z,9.73
2023-02-20T01:23:14.251Z,8.39
2023-02-20T01:28:16.350Z,8.56
2023-02-20T01:33:18.083Z,9.60
2023-02-20T01:38:19.925Z,9.24
2023-02-20T01:43:21.551Z,9.47
2023-02-20T01:48:26.042Z,7.69
2023-02-20T01:53:30.621Z,7.87
2023-02-20T01:58:45.593Z,8.09
2023-02-20T02:03:54.546Z,9.19
2023-02-20T02:09:02.169Z,8.54
2023-02-20T02:14:03.998Z,8.11
2023-02-20T02:19:33.363Z,8.45
2023-02-20T02:24:44.573Z,8.47
2023-02-20T02:30:23.086Z,9.15
2023-02-20T02:36:19.283Z,8.99
2023-02-20T02:41:46.426Z,8.35
2023-02-20T02:47:00.127Z,9.30
2023-02-20T02:52:02.881Z,8.49
2023-02-20T02:57:22.362Z,8.53
2023-02-20T03:02:26.000Z,8.68
2023-02-20T03:07:28.860Z,7.71
2023-02-20T03:12:31.670Z,8.89
2023-02-20T03:17:39.567Z,7.53
2023-02-20T03:22:52.234Z,6.81
2023-02-20T03:27:59.246Z,7.80
2023-02-20T03:33:31.126Z,7.92
2023-02-20T03:38:55.939Z,7.14
2023-02-20T03:44:00.153Z,6.57
2023-02-20T03:49:10.444Z,8.01
2023-02-20T03:54:12.417Z,7.46
2023-02-20T03:59:31.406Z,8.54
2023-02-20T04:04:41.459Z,8.58
2023-02-20T04:09:46.396Z,7.31
2023-02-20T04:14:51.356Z,7.35
2023-02-20T04:19:54.292Z,7.54
2023-02-20T04:25:11.509Z,7.10
2023-02-20T04:30:13.704Z,6.84
2023-02-20T04:35:20.762Z,6.98
2023-02-20T04:40:24.290Z,7.20
2023-02-20T04:45:26.011Z,6.90
2023-02-20T04:50:34.910Z,7.97
2023-02-20T04:55:36.807Z,7.81
2023-02-20T05:00:38.481Z,7.05
2023-02-20T05:05:40.415Z,7.19
2023-02-20T05:10:42.024Z,8.14
2023-02-20T05:15:43.846Z,8.43
2023-02-20T05:21:04.067Z,7.53
2023-02-20T05:26:10.985Z,7.24
2023-02-20T05:31:16.298Z,8.18
2023-02-20T05:36:19.176Z,7.04
2023-02-20T05:41:20.989Z,7.47
2023-02-20T05:46:22.798Z,7.55
2023-02-20T05:51:27.338Z,7.33
2023-02-20T05:56:30.233Z,6.50
2023-02-20T06:01:32.504Z,6.52
2023-02-20T06:06:36.352Z,6.47
2023-02-20T06:11:41.409Z,6.33
2023-02-20T06:16:43.044Z,6.60
2023-02-20T06:21:48.588Z,7.47
2023-02-20T06:26:50.563Z,7.33
2023-02-20T06:31:52.338Z,6.10
2023-02-20T06:36:54.041Z,7.13
2023-02-20T06:41:56.156Z,6.23
2023-02-20T06:46:57.950Z,6.52
2023-02-20T06:51:59.664Z,7.78
2023-02-20T06:57:02.061Z,7.57
2023-02-20T07:02:03.806Z,7.97
2023-02-20T07:07:05.785Z,7.94
2023-02-20T07:12:08.002Z,6.89
2023-02-20T07:17:09.701Z,6.52
2023-02-20T07:22:11.455Z,7.48
2023-02-20T07:27:14.078Z,6.78
2023-02-20T07:32:20.498Z,7.28
2023-02-20T07:37:22.472Z,8.46
2023-02-20T07:42:24.312Z,8.11
2023-02-20T07:47:26.060Z,8.47
2023-02-20T07:52:27.858Z,7.92
2023-02-20T07:57:36.569Z,7.83
2023-02-20T08:02:38.267Z,8.46
2023-02-20T08:07:45.657Z,8.09
2023-02-20T08:12:48.553Z,8.42
2023-02-20T08:17:52.261Z,8.60
2023-02-20T08:22:54.160Z,9.61
2023-02-20T08:27:55.906Z,9.59
2023-02-20T08:32:57.772Z,8.53
2023-02-20T08:38:00.094Z,9.27
2023-02-20T08:43:02.562Z,8.52
2023-02-20T08:48:04.400Z,8.21
2023-02-20T08:53:06.260Z,10.04
2023-02-20T08:58:08.118Z,9.99
2023-02-20T09:03:09.936Z,9.43
2023-02-20T09:08:11.795Z,9.68
2023-02-20T09:13:14.289Z,9.61
2023-02-20T09:18:16.186Z,9.24
2023-02-20T09:23:19.370Z,8.53
2023-02-20T09:28:21.216Z,10.20
2023-02-20T09:33:24.425Z,9.61
2023-02-20T09:38:27.861Z,9.70
2023-02-20T09:43:58.940Z,9.34
2023-02-20T09:49:11.188Z,10.45
2023-02-20T09:54:20.929Z,9.72
2023-02-20T09:59:29.986Z,10.57
2023-02-20T10:04:47.114Z,11.06
2023-02-20T10:09:55.724Z,10.57
2023-02-20T10:15:23.538Z,10.64
2023-02-20T10:20:47.504Z,10.78
2023-02-20T10:25:54.071Z,10.82
2023-02-20T10:30:59.307Z,11.04
2023-02-20T10:36:12.443Z,10.87
2023-02-20T10:41:28.793Z,11.34
2023-02-20T10:46:46.754Z,10.64
2023-02-20T10:51:56.015Z,10.69
2023-02-20T10:57:14.418Z,11.75
2023-02-20T11:06:45.604Z,8.27
2023-02-20T11:11:47.834Z,8.74
2023-02-20T11:17:19.388Z,9.44
2023-02-20T11:22:42.900Z,9.05
2023-02-20T11:27:49.874Z,9.10
2023-02-20T11:33:05.662Z,9.46
2023-02-20T11:38:26.340Z,10.15
2023-02-20T11:43:37.241Z,10.63
2023-02-20T11:48:57.336Z,10.41
2023-02-20T11:54:21.303Z,10.51
2023-02-20T12:00:08.608Z,10.02
2023-02-20T12:05:13.505Z,10.19
2023-02-20T12:10:24.017Z,10.97
2023-02-20T12:15:28.969Z,10.44
2023-02-20T12:20:31.723Z,11.08
2023-02-20T12:26:01.269Z,10.70
2023-02-20T12:31:13.459Z,11.11
2023-02-20T12:36:51.409Z,11.44
2023-02-20T12:42:03.888Z,11.02
2023-02-20T12:47:14.504Z,11.71
2023-02-20T12:52:28.870Z,10.70
2023-02-20T12:57:48.725Z,11.90
2023-02-20T13:02:55.567Z,11.57
2023-02-20T13:08:03.912Z,11.69
2023-02-20T13:13:11.236Z,11.89
2023-02-20T13:18:25.647Z,10.30
2023-02-20T13:23:35.745Z,11.80
2023-02-20T13:28:44.995Z,11.48
2023-02-20T13:33:52.669Z,11.44
2023-02-20T13:39:19.141Z,12.68
2023-02-20T13:44:29.716Z,12.48
2023-02-20T13:49:49.422Z,11.45
2023-02-20T13:54:51.160Z,11.59
2023-02-20T13:59:55.380Z,12.50
2023-02-20T14:05:06.929Z,11.91
2023-02-20T14:10:15.626Z,12.57
2023-02-20T14:15:17.303Z,12.28
2023-02-20T14:20:34.885Z,12.82
2023-02-20T14:25:36.722Z,11.22
2023-02-20T14:30:39.021Z,12.55
2023-02-20T14:35:55.911Z,11.86
2023-02-20T14:40:59.594Z,12.68
2023-02-20T14:46:07.826Z,12.10
2023-02-20T14:51:22.363Z,11.46
2023-02-20T14:56:24.167Z,12.34
2023-02-20T15:05:34.687Z,10.01
2023-02-20T15:10:41.841Z,10.58
2023-02-20T15:15:46.867Z,11.60
2023-02-20T15:20:49.569Z,11.40
2023-02-20T15:25:51.485Z,11.64
2023-02-20T15:31:11.499Z,10.96
2023-02-20T15:36:15.399Z,11.39
2023-02-20T15:41:18.495Z,11.51
2023-02-20T15:46:20.777Z,11.56
2023-02-20T15:51:23.349Z,11.82
2023-02-20T15:56:31.920Z,11.56
2023-02-20T16:01:33.869Z,12.25
2023-02-20T16:06:35.872Z,11.63
2023-02-20T16:11:45.230Z,11.44
2023-02-20T16:16:51.045Z,11.56
2023-02-20T16:21:59.106Z,11.20
2023-02-20T16:27:02.349Z,11.41
2023-02-20T16:32:04.542Z,11.52
2023-02-20T16:37:11.276Z,10.60
2023-02-20T16:42:20.793Z,11.02
2023-02-20T16:47:26.196Z,11.17
2023-02-20T16:52:39.540Z,11.25
2023-02-20T16:57:41.294Z,11.33
2023-02-20T17:02:43.676Z,11.32
2023-02-20T17:07:45.693Z,11.18
2023-02-20T17:12:47.422Z,10.74
2023-02-20T17:17:49.163Z,10.44
2023-02-20T17:23:02.691Z,10.76
2023-02-20T17:28:06.124Z,11.42
2023-02-20T17:33:07.805Z,10.09
2023-02-20T17:38:09.540Z,10.57
2023-02-20T17:43:11.341Z,10.15
2023-02-20T17:48:13.009Z,10.73
2023-02-20T17:53:15.083Z,10.31
2023-02-20T17:58:16.768Z,10.71
2023-02-20T18:03:18.361Z,9.82
2023-02-20T18:08:20.091Z,10.32
2023-02-20T18:13:22.084Z,10.09
2023-02-20T18:18:23.832Z,10.14
2023-02-20T18:23:25.986Z,9.66
2023-02-20T18:28:27.744Z,9.78
2023-02-20T18:33:29.401Z,10.32
2023-02-20T18:38:31.114Z,10.57
2023-02-20T18:43:33.057Z,9.68
2023-02-20T18:48:34.871Z,10.37
2023-02-20T18:53:36.475Z,10.05
2023-02-20T18:58:38.073Z,11.31
2023-02-20T19:03:39.748Z,9.96
2023-02-20T19:08:41.356Z,9.94
2023-02-20T19:13:42.979Z,10.66
2023-02-20T19:18:50.365Z,10.67
2023-02-20T19:23:52.772Z,10.06
2023-02-20T19:29:02.018Z,9.94
2023-02-20T19:34:04.157Z,9.93
2023-02-20T19:39:05.873Z,9.64
2023-02-20T19:44:08.001Z,9.07
2023-02-20T19:49:12.693Z,9.02
2023-02-20T19:54:16.666Z,8.64
2023-02-20T19:59:19.424Z,8.25
2023-02-20T20:04:24.001Z,8.96
2023-02-20T20:09:36.089Z,9.10
2023-02-20T20:14:38.579Z,8.89
2023-02-20T20:19:44.347Z,9.39
2023-02-20T20:24:48.730Z,9.92
2023-02-20T20:29:51.483Z,9.47
2023-02-20T20:34:55.172Z,9.51
2023-02-20T20:39:59.335Z,9.05
2023-02-20T20:45:01.603Z,9.52
2023-02-20T20:50:04.659Z,9.45
2023-02-20T20:55:07.625Z,9.82
2023-02-20T21:00:31.826Z,9.70
2023-02-20T21:11:49.984Z,9.77
2023-02-20T21:16:51.853Z,9.89
2023-02-20T21:21:54.305Z,9.42
2023-02-20T21:26:56.195Z,10.03
2023-02-20T21:31:57.901Z,9.15
2023-02-20T21:37:00.052Z,9.19
2023-02-20T21:42:20.361Z,8.88
2023-02-20T21:47:22.245Z,9.27
2023-02-20T21:52:24.493Z,8.32
2023-02-20T21:57:27.654Z,9.20
2023-02-20T22:02:29.270Z,8.96
2023-02-20T22:07:49.396Z,9.17
2023-02-20T22:13:09.826Z,8.09
2023-02-20T22:18:30.310Z,10.04
2023-02-20T22:23:50.434Z,8.86
2023-02-20T22:29:10.496Z,8.31
2023-02-20T22:34:31.062Z,7.85
2023-02-20T22:39:51.229Z,7.96
2023-02-20T22:45:11.483Z,9.62
2023-02-20T22:50:31.973Z,9.27
2023-02-20T22:55:52.499Z,9.28
2023-02-20T23:01:12.966Z,9.28
2023-02-20T23:06:37.879Z,9.52
2023-02-20T23:11:58.456Z,8.24
2023-02-20T23:17:29.306Z,7.95
2023-02-20T23:22:54.945Z,8.83
2023-02-20T23:28:15.446Z,9.53
2023-02-20T23:33:35.690Z,7.79
2023-02-20T23:38:55.910Z,9.11
2023-02-20T23:44:16.196Z,9.28
2023-02-20T23:49:37.677Z,9.25
2023-02-20T23:54:57.925Z,9.10
